Terminal Aerodrome Forecast
Issued by NWS

Home | Current Version | Previous Version | Text Only | Print | Product List | Glossary On
Versions: 1 2 3 4 5 6 7 8 9 10 11 12 13 14 15 16
000
FTUS45 KCYS 161720
TAFLAR
TAF
KLAR 161720Z 1618/1718 24018G26KT P6SM BKN250
     FM170100 24008KT P6SM SCT250
     FM171600 23013G25KT P6SM SCT250=

USA.gov is the U.S. government's official web portal to all federal, state and local government web resources and services.